Time;durP1;ratioP1;P1;durP2;ratioP2;P2;SDS_P1;SDS_P2;PMS_P1;PMS_P2;Temp;Humidity;BMP_temperature;BMP_pressure;BME280_temperature;BME280_humidity;BME280_pressure;Samples;Min_cycle;Max_cycle;Signal;HPM_P1;HPM_P2
2023/01/20 00:01:17;;;;;;;4.07;3.40;;;1.00;99.90;;;;;;5109552;28;20930;-73
2023/01/20 00:03:44;;;;;;;3.72;3.42;;;0.90;99.90;;;;;;5111892;28;20396;-72
2023/01/20 00:06:10;;;;;;;3.50;3.20;;;0.80;99.90;;;;;;5094757;28;20389;-73
2023/01/20 00:08:37;;;;;;;3.58;3.25;;;0.90;99.90;;;;;;5098586;28;20386;-73
2023/01/20 00:11:04;;;;;;;4.00;3.60;;;0.90;99.90;;;;;;5106285;28;20412;-73
2023/01/20 00:13:30;;;;;;;5.20;3.70;;;0.90;99.90;;;;;;5111940;28;20404;-72
2023/01/20 00:15:55;;;;;;;4.53;4.13;;;0.90;99.90;;;;;;5112644;28;20391;-73
2023/01/20 00:18:21;;;;;;;5.55;3.92;;;0.90;99.90;;;;;;5076281;28;20757;-72
2023/01/20 00:20:46;;;;;;;4.20;3.80;;;0.90;99.90;;;;;;5092336;28;20385;-72
2023/01/20 00:23:12;;;;;;;4.10;3.70;;;1.00;99.90;;;;;;5091355;28;20409;-72
2023/01/20 00:25:37;;;;;;;3.60;3.30;;;0.90;99.90;;;;;;5092360;28;20897;-72
2023/01/20 00:28:03;;;;;;;4.00;3.60;;;0.90;99.90;;;;;;5106416;28;20483;-72
2023/01/20 00:30:28;;;;;;;3.87;3.47;;;0.90;99.90;;;;;;5112351;28;20761;-72
2023/01/20 00:32:54;;;;;;;4.30;3.70;;;0.90;99.90;;;;;;5105045;28;20397;-72
2023/01/20 00:35:19;;;;;;;3.57;3.27;;;0.90;99.90;;;;;;5112039;28;20912;-72
2023/01/20 00:37:45;;;;;;;3.70;3.40;;;0.90;99.90;;;;;;5094110;28;20384;-72
2023/01/20 00:40:11;;;;;;;3.50;3.20;;;0.90;99.90;;;;;;5112254;28;20383;-72
2023/01/20 00:42:36;;;;;;;3.53;3.22;;;0.90;99.90;;;;;;5108296;28;20420;-72
2023/01/20 00:45:02;;;;;;;4.60;3.20;;;0.90;99.90;;;;;;5073453;28;20398;-72
2023/01/20 00:47:28;;;;;;;4.43;3.45;;;0.90;99.90;;;;;;5091767;28;20393;-73
2023/01/20 00:49:53;;;;;;;3.83;3.20;;;0.90;99.90;;;;;;5098310;28;20388;-72
2023/01/20 00:52:19;;;;;;;3.20;2.90;;;1.00;99.90;;;;;;5112065;28;20376;-73
2023/01/20 00:54:44;;;;;;;3.47;3.17;;;0.90;99.90;;;;;;5092959;28;20396;-72
2023/01/20 00:57:11;;;;;;;2.80;2.60;;;1.00;99.90;;;;;;5112113;28;20393;-72
2023/01/20 00:59:37;;;;;;;2.50;2.30;;;0.90;99.90;;;;;;5107769;28;20446;-73
2023/01/20 01:02:03;;;;;;;2.85;2.65;;;0.80;99.90;;;;;;5091298;28;20787;-73
2023/01/20 01:04:29;;;;;;;2.92;2.63;;;0.80;99.90;;;;;;5090756;28;20472;-73
2023/01/20 01:06:55;;;;;;;2.88;2.58;;;0.80;99.90;;;;;;5111088;28;20480;-73
2023/01/20 01:09:20;;;;;;;3.20;2.90;;;0.80;99.90;;;;;;5092938;28;20919;-72
2023/01/20 01:11:47;;;;;;;3.08;2.70;;;0.80;99.90;;;;;;5091370;28;20390;-73
2023/01/20 01:14:12;;;;;;;2.90;2.38;;;0.80;99.90;;;;;;5090226;28;20447;-72
2023/01/20 01:16:38;;;;;;;2.83;2.53;;;0.80;99.90;;;;;;5107618;28;20475;-72
2023/01/20 01:19:03;;;;;;;3.28;2.30;;;0.80;99.90;;;;;;5111618;28;20380;-72
2023/01/20 01:21:29;;;;;;;2.60;2.25;;;0.60;99.90;;;;;;5111478;28;21054;-73
2023/01/20 01:23:54;;;;;;;2.88;2.50;;;0.70;99.90;;;;;;5092274;28;20758;-73
2023/01/20 01:26:20;;;;;;;3.05;2.35;;;0.70;99.90;;;;;;5097363;28;20737;-73
2023/01/20 01:28:49;;;;;;;3.15;2.90;;;0.70;99.90;;;;;;5090932;28;20840;-73
2023/01/20 01:31:17;;;;;;;3.50;2.65;;;0.80;99.90;;;;;;5090941;28;20473;-73
2023/01/20 01:33:43;;;;;;;3.90;2.63;;;0.90;99.90;;;;;;5090037;28;20427;-73
2023/01/20 01:36:13;;;;;;;3.08;2.40;;;0.90;99.90;;;;;;5101866;28;20403;-73
2023/01/20 01:38:38;;;;;;;2.97;2.50;;;0.90;99.90;;;;;;5111229;28;20861;-73
2023/01/20 01:41:05;;;;;;;2.47;2.28;;;0.80;99.90;;;;;;5095104;28;20405;-73
2023/01/20 01:43:35;;;;;;;2.33;2.13;;;0.80;99.90;;;;;;5090024;28;20872;-73
2023/01/20 01:46:02;;;;;;;2.70;2.50;;;0.80;99.90;;;;;;5072328;28;20465;-73
2023/01/20 01:48:32;;;;;;;2.50;2.30;;;0.90;99.90;;;;;;5090705;28;20386;-73
2023/01/20 01:51:04;;;;;;;2.85;2.42;;;0.90;99.90;;;;;;5098209;28;20427;-73
2023/01/20 01:53:36;;;;;;;3.40;2.50;;;0.90;99.90;;;;;;5089784;28;20849;-73
2023/01/20 01:56:02;;;;;;;2.90;2.50;;;0.90;99.90;;;;;;5090609;28;20781;-73
2023/01/20 01:58:35;;;;;;;2.58;2.38;;;0.90;99.90;;;;;;5090494;28;20378;-73
2023/01/20 02:01:01;;;;;;;3.20;2.90;;;0.80;99.90;;;;;;5095498;28;20444;-73
2023/01/20 02:03:54;;;;;;;2.80;2.50;;;0.90;99.90;;;;;;5108413;28;20396;-73
2023/01/20 02:06:23;;;;;;;2.77;2.57;;;0.80;99.90;;;;;;5110326;28;20396;-73
2023/01/20 02:08:49;;;;;;;3.17;2.70;;;0.60;99.90;;;;;;5084428;28;20390;-73
2023/01/20 02:11:14;;;;;;;2.90;2.60;;;0.80;99.90;;;;;;5090312;28;20933;-73
2023/01/20 02:13:40;;;;;;;3.15;2.63;;;0.80;99.90;;;;;;5088763;28;20405;-73
2023/01/20 02:16:31;;;;;;;2.65;2.30;;;0.80;99.90;;;;;;5090270;28;20394;-73
2023/01/20 02:19:21;;;;;;;2.78;2.50;;;0.80;99.90;;;;;;5075479;28;20424;-73
2023/01/20 02:21:54;;;;;;;2.40;2.20;;;0.80;99.90;;;;;;5110637;28;20377;-73
2023/01/20 02:24:57;;;;;;;2.42;2.00;;;0.80;99.90;;;;;;5109578;28;20388;-73
2023/01/20 02:27:44;;;;;;;2.28;2.08;;;0.90;99.90;;;;;;5110501;28;20498;-73
2023/01/20 02:30:30;;;;;;;2.60;2.40;;;0.90;99.90;;;;;;5098495;28;21045;-73
2023/01/20 02:33:13;;;;;;;2.50;1.88;;;0.90;99.90;;;;;;5089275;28;20926;-73
2023/01/20 02:35:57;;;;;;;1.75;1.65;;;0.80;99.90;;;;;;5090039;28;20464;-73
2023/01/20 02:38:45;;;;;;;2.22;1.90;;;0.70;99.90;;;;;;5105993;28;20440;-73
2023/01/20 02:41:33;;;;;;;2.10;1.73;;;0.70;99.90;;;;;;5110411;28;20380;-73
2023/01/20 02:44:40;;;;;;;2.40;1.70;;;0.70;99.90;;;;;;5109608;28;20384;-73
2023/01/20 02:47:39;;;;;;;1.45;1.35;;;0.70;99.90;;;;;;5104955;28;20451;-73
2023/01/20 02:50:22;;;;;;;1.75;1.65;;;0.70;99.90;;;;;;5089945;28;20519;-73
2023/01/20 02:52:52;;;;;;;2.60;1.63;;;0.70;99.90;;;;;;5090679;28;20524;-74
2023/01/20 02:55:40;;;;;;;2.30;1.67;;;0.70;99.90;;;;;;5110788;28;20866;-73
2023/01/20 02:58:55;;;;;;;1.70;1.60;;;0.80;99.90;;;;;;5110089;28;20503;-74
2023/01/20 03:01:33;;;;;;;1.80;1.70;;;0.70;99.90;;;;;;5110163;28;20503;-73
2023/01/20 03:04:01;;;;;;;2.03;1.58;;;0.70;99.90;;;;;;5098253;28;20420;-73
2023/01/20 03:06:31;;;;;;;3.60;1.75;;;0.70;99.90;;;;;;5089675;28;20393;-73
2023/01/20 03:09:01;;;;;;;2.35;1.70;;;0.80;99.90;;;;;;5074301;28;20884;-73
2023/01/20 03:11:29;;;;;;;2.25;1.55;;;0.70;99.90;;;;;;5077790;28;20950;-73
2023/01/20 03:14:21;;;;;;;1.65;1.50;;;0.70;99.90;;;;;;5088986;28;20393;-73
2023/01/20 03:16:49;;;;;;;1.70;1.60;;;0.70;99.90;;;;;;5086672;28;20394;-73
2023/01/20 03:19:15;;;;;;;1.70;1.60;;;0.60;99.90;;;;;;5089673;28;20753;-73
2023/01/20 03:21:41;;;;;;;1.40;1.30;;;0.60;99.90;;;;;;5080070;28;20917;-73
2023/01/20 03:24:06;;;;;;;1.60;1.50;;;0.60;99.90;;;;;;5109214;28;20388;-73
2023/01/20 03:26:32;;;;;;;2.10;1.90;;;0.70;99.90;;;;;;5112817;28;20412;-73
2023/01/20 03:29:03;;;;;;;2.25;1.40;;;0.60;99.90;;;;;;5105640;28;20465;-73
2023/01/20 03:31:43;;;;;;;1.70;1.60;;;0.70;99.90;;;;;;5074996;28;20390;-73
2023/01/20 03:34:15;;;;;;;1.30;1.20;;;0.70;99.90;;;;;;5074263;28;20433;-73
2023/01/20 03:36:43;;;;;;;1.95;1.55;;;0.70;99.90;;;;;;5093289;28;20378;-73
2023/01/20 03:39:09;;;;;;;1.30;1.20;;;0.70;99.90;;;;;;5101309;28;20393;-73
2023/01/20 03:41:50;;;;;;;1.40;1.10;;;0.70;99.90;;;;;;5113501;28;20373;-73
2023/01/20 03:44:29;;;;;;;1.27;1.20;;;0.70;99.90;;;;;;5112526;28;20534;-73
2023/01/20 03:47:22;;;;;;;1.75;1.30;;;0.70;99.90;;;;;;5113330;28;20398;-73
2023/01/20 03:50:05;;;;;;;1.60;1.50;;;0.60;99.90;;;;;;5095483;28;20405;-74
2023/01/20 03:52:46;;;;;;;1.63;1.50;;;0.60;99.90;;;;;;5092295;28;20414;-73
2023/01/20 03:55:13;;;;;;;1.20;1.10;;;0.60;99.90;;;;;;5092885;28;20378;-73
2023/01/20 03:57:56;;;;;;;1.40;1.20;;;0.70;99.90;;;;;;5092693;28;20370;-73
2023/01/20 04:00:24;;;;;;;1.15;1.05;;;0.60;99.90;;;;;;5112460;28;20399;-73
2023/01/20 04:02:54;;;;;;;1.40;1.20;;;0.60;99.90;;;;;;5112031;28;21319;-73
2023/01/20 04:05:20;;;;;;;2.10;1.60;;;0.60;99.90;;;;;;5113016;28;20372;-73
2023/01/20 04:07:48;;;;;;;1.35;1.10;;;0.60;99.90;;;;;;5107401;28;20402;-73
2023/01/20 04:10:16;;;;;;;1.40;1.30;;;0.40;99.90;;;;;;5108664;28;20893;-73
2023/01/20 04:12:41;;;;;;;1.27;1.17;;;0.40;99.90;;;;;;5111605;28;20391;-73
2023/01/20 04:15:08;;;;;;;1.30;1.20;;;0.50;99.90;;;;;;5112835;28;20388;-73
2023/01/20 04:17:34;;;;;;;1.42;1.17;;;0.60;99.90;;;;;;5112565;28;20435;-73
2023/01/20 04:20:05;;;;;;;0.90;0.90;;;0.60;99.90;;;;;;5100399;28;20410;-73
2023/01/20 04:22:46;;;;;;;1.13;1.00;;;0.60;99.90;;;;;;5091631;28;20890;-74
2023/01/20 04:25:19;;;;;;;1.10;1.00;;;0.70;99.90;;;;;;5094413;28;20396;-73
2023/01/20 04:27:44;;;;;;;1.65;1.45;;;0.70;99.90;;;;;;5112313;28;20424;-73
2023/01/20 04:30:12;;;;;;;1.80;1.60;;;0.60;99.90;;;;;;5112796;28;20703;-73
2023/01/20 04:32:37;;;;;;;3.10;1.60;;;0.60;99.90;;;;;;5111342;28;20410;-73
2023/01/20 04:35:03;;;;;;;2.93;2.33;;;0.50;99.90;;;;;;5074194;28;20394;-74
2023/01/20 04:37:29;;;;;;;3.37;2.50;;;0.40;99.90;;;;;;5099100;28;20384;-73
2023/01/20 04:39:54;;;;;;;2.53;2.10;;;0.40;99.90;;;;;;5112826;28;20387;-73
2023/01/20 04:42:20;;;;;;;2.33;2.10;;;0.40;99.90;;;;;;5112466;28;20380;-73
2023/01/20 04:44:45;;;;;;;1.90;1.77;;;0.50;99.90;;;;;;5111981;28;20391;-74
2023/01/20 04:47:11;;;;;;;1.50;1.40;;;0.60;99.90;;;;;;5108237;28;20396;-73
2023/01/20 04:49:36;;;;;;;1.57;1.47;;;0.60;99.90;;;;;;5095105;28;20896;-73
2023/01/20 04:52:02;;;;;;;1.30;1.20;;;0.50;99.90;;;;;;5112669;28;20388;-74
2023/01/20 04:54:27;;;;;;;1.50;1.40;;;0.60;99.90;;;;;;5111864;28;20412;-73
2023/01/20 04:56:53;;;;;;;1.50;1.10;;;0.60;99.90;;;;;;5112311;28;20855;-73
2023/01/20 04:59:19;;;;;;;2.70;1.30;;;0.60;99.90;;;;;;5111992;28;20437;-73
2023/01/20 05:01:44;;;;;;;1.50;1.10;;;0.70;99.90;;;;;;5092066;28;20390;-73
2023/01/20 05:04:10;;;;;;;1.15;1.10;;;0.70;99.90;;;;;;5072717;28;20389;-73
2023/01/20 05:06:35;;;;;;;1.30;1.20;;;0.60;99.90;;;;;;5104815;28;20392;-73
2023/01/20 05:09:01;;;;;;;1.17;1.00;;;0.50;99.90;;;;;;5095860;28;20401;-73
2023/01/20 05:11:26;;;;;;;1.25;1.02;;;0.40;99.90;;;;;;5091648;28;20383;-73
2023/01/20 05:13:52;;;;;;;1.20;1.10;;;0.50;99.90;;;;;;5090624;28;20926;-73
2023/01/20 05:16:22;;;;;;;2.15;1.02;;;0.50;99.90;;;;;;5101353;28;20407;-73
2023/01/20 05:18:48;;;;;;;2.05;1.30;;;0.50;99.90;;;;;;5111906;28;20497;-73
2023/01/20 05:21:14;;;;;;;2.75;2.55;;;0.50;99.90;;;;;;5112059;28;20377;-73
2023/01/20 05:23:39;;;;;;;4.10;3.40;;;0.40;99.90;;;;;;5109006;28;20420;-73
2023/01/20 05:26:05;;;;;;;4.90;4.40;;;0.40;99.90;;;;;;5091397;28;20485;-73
2023/01/20 05:28:31;;;;;;;5.80;4.47;;;0.50;99.90;;;;;;5091312;28;20378;-74
2023/01/20 05:30:56;;;;;;;5.20;4.05;;;0.50;99.90;;;;;;5073155;28;20392;-73
2023/01/20 05:33:22;;;;;;;6.50;3.88;;;0.40;99.90;;;;;;5072301;28;20402;-73
2023/01/20 05:35:47;;;;;;;4.63;4.22;;;0.50;99.90;;;;;;5106048;28;20392;-73
2023/01/20 05:38:13;;;;;;;3.90;3.47;;;0.40;99.90;;;;;;5094630;28;20872;-73
2023/01/20 05:40:38;;;;;;;3.75;3.03;;;0.30;99.90;;;;;;5091347;28;20370;-74
2023/01/20 05:43:04;;;;;;;4.32;3.70;;;0.20;99.90;;;;;;5072091;28;20393;-72
2023/01/20 05:45:31;;;;;;;4.15;3.53;;;0.10;99.90;;;;;;5094743;28;20455;-73
2023/01/20 05:47:58;;;;;;;3.50;3.20;;;0.10;99.90;;;;;;5110981;28;20986;-73
2023/01/20 05:50:25;;;;;;;2.60;2.40;;;0.10;99.90;;;;;;5109839;28;20378;-73
2023/01/20 05:52:51;;;;;;;2.60;2.10;;;0.10;99.90;;;;;;5071785;28;20467;-73
2023/01/20 05:55:16;;;;;;;1.80;1.60;;;0.00;99.90;;;;;;5072747;28;20788;-73
2023/01/20 05:57:42;;;;;;;2.50;1.98;;;-0.10;99.90;;;;;;5090864;28;20382;-73
2023/01/20 06:00:08;;;;;;;1.90;1.75;;;-0.10;99.90;;;;;;5072726;28;20378;-73
2023/01/20 06:02:34;;;;;;;1.75;1.65;;;-0.20;99.90;;;;;;5108461;28;20381;-73
2023/01/20 06:05:00;;;;;;;1.80;1.70;;;-0.20;99.90;;;;;;5111105;28;20444;-73
2023/01/20 06:07:27;;;;;;;2.00;1.80;;;-0.30;99.90;;;;;;5083383;28;21268;-73
2023/01/20 06:09:56;;;;;;;1.60;1.40;;;-0.30;99.90;;;;;;5068699;28;20884;-74
2023/01/20 06:12:22;;;;;;;1.60;1.50;;;-0.40;99.90;;;;;;5070430;28;20384;-74
2023/01/20 06:14:48;;;;;;;1.83;1.50;;;-0.30;99.90;;;;;;5069785;28;20396;-74
2023/01/20 06:17:13;;;;;;;1.40;1.30;;;-0.30;99.90;;;;;;5075251;28;20385;-74
2023/01/20 06:19:39;;;;;;;1.20;1.10;;;-0.40;99.90;;;;;;5090597;28;20390;-74
2023/01/20 06:22:06;;;;;;;1.93;1.60;;;-0.30;99.90;;;;;;5090564;28;20507;-73
2023/01/20 06:24:32;;;;;;;1.70;1.60;;;-0.40;99.90;;;;;;5094623;28;20429;-72
2023/01/20 06:26:57;;;;;;;2.50;2.30;;;-0.50;99.90;;;;;;5110930;28;20904;-73
2023/01/20 06:29:23;;;;;;;2.87;2.30;;;-0.40;99.90;;;;;;5110918;28;20379;-72
2023/01/20 06:31:48;;;;;;;2.80;2.47;;;-0.40;99.90;;;;;;5110829;28;20412;-72
2023/01/20 06:34:14;;;;;;;2.90;2.60;;;-0.50;99.90;;;;;;5107697;28;20739;-72
2023/01/20 06:36:40;;;;;;;4.23;2.50;;;-0.60;99.90;;;;;;5090476;28;20378;-73
2023/01/20 06:39:05;;;;;;;2.30;2.10;;;-0.70;99.90;;;;;;5072121;28;20386;-72
2023/01/20 06:41:31;;;;;;;2.97;2.35;;;-0.70;99.90;;;;;;5107147;28;20388;-73
2023/01/20 06:43:57;;;;;;;2.45;2.20;;;-0.70;99.90;;;;;;5110014;28;20742;-73
2023/01/20 06:46:22;;;;;;;2.80;2.50;;;-0.70;99.90;;;;;;5110767;28;20880;-73
2023/01/20 06:48:49;;;;;;;2.70;1.90;;;-0.70;99.90;;;;;;5110821;28;20444;-73
2023/01/20 06:51:18;;;;;;;2.00;1.90;;;-0.60;99.90;;;;;;5096741;28;20389;-73
2023/01/20 06:53:43;;;;;;;2.17;1.88;;;-0.60;99.90;;;;;;5096529;28;20411;-73
2023/01/20 06:56:11;;;;;;;2.00;1.50;;;-0.60;99.90;;;;;;5110310;28;20869;-73
2023/01/20 06:58:37;;;;;;;2.80;1.98;;;-0.60;99.90;;;;;;5110597;28;20384;-74
2023/01/20 07:01:14;;;;;;;2.00;1.90;;;-0.70;99.90;;;;;;5112810;28;20943;-73
2023/01/20 07:03:43;;;;;;;2.92;2.47;;;-0.60;99.90;;;;;;5106960;28;20535;-73
2023/01/20 07:06:39;;;;;;;2.30;2.10;;;-0.20;99.90;;;;;;5094066;28;20397;-73
2023/01/20 07:09:06;;;;;;;2.50;2.17;;;-0.50;99.90;;;;;;5076723;28;20391;-73
2023/01/20 07:11:33;;;;;;;2.22;2.03;;;-0.60;99.90;;;;;;5096795;28;20397;-74
2023/01/20 07:13:59;;;;;;;2.20;2.00;;;-0.60;99.90;;;;;;5096975;28;20433;-73
2023/01/20 07:16:25;;;;;;;3.65;2.38;;;-0.60;99.90;;;;;;5099495;28;20450;-73
2023/01/20 07:18:51;;;;;;;3.58;2.60;;;-0.50;99.90;;;;;;5097271;28;20386;-73
2023/01/20 07:21:17;;;;;;;2.90;2.60;;;-0.60;99.90;;;;;;5107305;28;20418;-73
2023/01/20 07:23:43;;;;;;;2.60;2.40;;;-0.70;99.90;;;;;;5095136;28;20385;-73
2023/01/20 07:26:18;;;;;;;2.47;2.28;;;-0.60;99.90;;;;;;5111591;28;20392;-73
2023/01/20 07:28:43;;;;;;;3.60;2.50;;;-0.50;99.90;;;;;;5108812;28;20463;-73
2023/01/20 07:31:15;;;;;;;3.17;2.67;;;-0.70;99.90;;;;;;5099832;28;20545;-73
2023/01/20 07:33:41;;;;;;;4.25;2.90;;;-0.60;99.90;;;;;;5107898;28;20404;-73
2023/01/20 07:36:08;;;;;;;3.13;2.60;;;-0.50;99.90;;;;;;5100621;28;20392;-74
2023/01/20 07:38:34;;;;;;;2.50;2.30;;;-0.50;99.90;;;;;;5104806;28;20388;-74
2023/01/20 07:41:01;;;;;;;2.77;2.27;;;-0.60;99.90;;;;;;5103181;28;20863;-73
2023/01/20 07:43:27;;;;;;;2.70;2.50;;;-0.50;99.90;;;;;;5096312;28;20855;-73
2023/01/20 07:46:00;;;;;;;2.33;2.13;;;-0.40;99.90;;;;;;5110355;28;20470;-73
2023/01/20 07:48:30;;;;;;;2.55;2.35;;;-0.40;99.90;;;;;;5105812;28;20385;-73
2023/01/20 07:51:01;;;;;;;3.45;2.83;;;-0.30;99.90;;;;;;5102558;28;20414;-73
2023/01/20 07:53:32;;;;;;;3.35;2.70;;;-0.40;99.90;;;;;;5078032;28;20401;-73
2023/01/20 07:56:02;;;;;;;2.38;2.17;;;-0.30;99.90;;;;;;5096683;28;20390;-73
2023/01/20 07:58:28;;;;;;;3.07;2.60;;;-0.30;99.90;;;;;;5105386;28;20378;-73
2023/01/20 08:00:54;;;;;;;3.85;2.50;;;-0.30;99.90;;;;;;5102040;28;20864;-73
2023/01/20 08:03:20;;;;;;;4.20;2.77;;;-0.30;99.90;;;;;;5059732;22;1749678;-72
2023/01/20 08:05:45;;;;;;;3.78;2.20;;;-0.10;99.90;;;;;;5112617;27;20411;-72
2023/01/20 08:08:11;;;;;;;2.80;2.53;;;-0.20;99.90;;;;;;5106467;27;20394;-72
2023/01/20 08:10:36;;;;;;;2.97;2.40;;;-0.10;99.90;;;;;;5110930;27;20413;-70
2023/01/20 08:13:02;;;;;;;3.90;2.80;;;-0.10;99.90;;;;;;5127536;27;20485;-73
2023/01/20 08:15:27;;;;;;;3.33;2.90;;;-0.10;99.90;;;;;;5120486;27;20526;-73
2023/01/20 08:17:54;;;;;;;4.10;2.50;;;-0.10;99.90;;;;;;5112589;28;20441;-73
2023/01/20 08:20:20;;;;;;;3.50;2.70;;;0.00;99.90;;;;;;5112900;28;20418;-73
2023/01/20 08:22:45;;;;;;;3.00;2.70;;;0.10;99.90;;;;;;5112255;28;20381;-73
2023/01/20 08:25:11;;;;;;;3.10;2.30;;;0.10;99.90;;;;;;5113135;28;20381;-73
2023/01/20 08:27:36;;;;;;;2.60;2.40;;;0.10;99.90;;;;;;5112737;28;20398;-73
2023/01/20 08:30:03;;;;;;;3.30;2.40;;;0.00;99.90;;;;;;5112993;28;20376;-73
2023/01/20 08:32:29;;;;;;;3.60;2.50;;;0.10;99.90;;;;;;5112248;28;20456;-72
2023/01/20 08:34:55;;;;;;;3.60;2.45;;;0.00;99.90;;;;;;5112108;28;20396;-72
2023/01/20 08:37:20;;;;;;;3.28;2.50;;;0.10;99.90;;;;;;5112672;28;20870;-72
2023/01/20 08:39:46;;;;;;;4.50;2.90;;;0.20;99.90;;;;;;5112697;28;20380;-73
2023/01/20 08:42:11;;;;;;;3.73;2.90;;;0.30;99.90;;;;;;5112121;28;20755;-73
2023/01/20 08:44:37;;;;;;;2.70;2.10;;;0.40;99.90;;;;;;5111724;28;20380;-70
2023/01/20 08:47:02;;;;;;;3.40;2.47;;;0.50;99.90;;;;;;5112602;28;20391;-70
2023/01/20 08:49:28;;;;;;;2.50;2.30;;;0.40;99.90;;;;;;5111060;28;20447;-69
2023/01/20 08:51:55;;;;;;;2.78;2.50;;;0.60;99.90;;;;;;5112263;28;20392;-70
2023/01/20 08:54:21;;;;;;;2.80;2.40;;;0.70;99.90;;;;;;5111594;28;20400;-69
2023/01/20 08:56:56;;;;;;;3.50;2.40;;;0.40;99.90;;;;;;5112212;28;20379;-69
2023/01/20 08:59:21;;;;;;;4.53;2.75;;;0.50;99.90;;;;;;5112148;28;20421;-70
2023/01/20 09:01:47;;;;;;;3.78;2.85;;;0.50;99.90;;;;;;5111806;28;20384;-69
2023/01/20 09:04:12;;;;;;;2.92;2.63;;;0.50;99.90;;;;;;5111322;28;20396;-70
2023/01/20 09:06:48;;;;;;;3.35;2.70;;;0.50;99.90;;;;;;5111634;28;20384;-71
2023/01/20 09:09:16;;;;;;;4.00;2.53;;;0.50;99.90;;;;;;5112195;28;20785;-70
2023/01/20 09:11:49;;;;;;;4.40;2.83;;;0.50;99.90;;;;;;5111522;28;20808;-70
2023/01/20 09:14:24;;;;;;;3.47;2.50;;;0.30;99.90;;;;;;5111206;28;20408;-71
2023/01/20 09:16:50;;;;;;;3.60;2.47;;;0.50;99.90;;;;;;5111955;28;20368;-70
2023/01/20 09:19:16;;;;;;;4.40;3.00;;;0.70;99.90;;;;;;5112007;28;20475;-70
2023/01/20 09:21:43;;;;;;;3.70;2.70;;;0.70;99.90;;;;;;5111564;28;20384;-70
2023/01/20 09:24:08;;;;;;;4.80;2.60;;;0.60;99.90;;;;;;5092856;28;20384;-71
2023/01/20 09:26:40;;;;;;;4.60;2.67;;;0.60;99.90;;;;;;5111972;28;20892;-70
2023/01/20 09:29:11;;;;;;;2.85;2.50;;;0.70;99.90;;;;;;5111770;28;20787;-70
2023/01/20 09:31:39;;;;;;;2.80;2.40;;;0.70;99.90;;;;;;5109364;28;20391;-71
2023/01/20 09:34:04;;;;;;;4.70;2.58;;;0.70;99.90;;;;;;5104477;28;20410;-72
2023/01/20 09:36:30;;;;;;;3.27;2.50;;;0.80;99.90;;;;;;5110929;28;20392;-73
2023/01/20 09:44:44;;;;;;;3.08;2.78;;;0.80;99.90;;;;;;5110622;28;20379;-73
2023/01/20 09:47:18;;;;;;;4.30;3.28;;;0.70;99.90;;;;;;5111399;28;20846;-72
2023/01/20 09:53:49;;;;;;;3.50;3.00;;;1.10;99.90;;;;;;5110024;28;20394;-72
2023/01/20 09:56:18;;;;;;;4.85;2.80;;;0.90;99.90;;;;;;5111311;28;20372;-73
2023/01/20 09:59:12;;;;;;;4.65;3.10;;;0.90;99.90;;;;;;5111488;28;20597;-73
2023/01/20 10:01:44;;;;;;;3.85;2.78;;;0.80;99.90;;;;;;5111250;28;20442;-73
2023/01/20 10:04:22;;;;;;;4.47;3.38;;;1.30;99.90;;;;;;5091423;28;20397;-72
2023/01/20 10:07:12;;;;;;;4.60;3.10;;;1.40;99.90;;;;;;5110846;28;20508;-72
2023/01/20 10:09:48;;;;;;;5.90;3.60;;;1.30;99.90;;;;;;5090749;28;21112;-72
2023/01/20 10:12:24;;;;;;;4.28;3.10;;;1.30;99.90;;;;;;5091062;28;20867;-73
2023/01/20 10:15:12;;;;;;;3.25;2.95;;;1.40;99.90;;;;;;5102078;28;20430;-73
2023/01/20 10:17:51;;;;;;;2.92;2.33;;;1.40;99.90;;;;;;5111179;28;20468;-72
2023/01/20 10:20:42;;;;;;;2.33;2.13;;;1.60;99.90;;;;;;5110928;28;20421;-73
2023/01/20 10:23:26;;;;;;;2.50;2.30;;;1.40;99.90;;;;;;5091613;28;20392;-73
2023/01/20 10:26:03;;;;;;;2.33;2.10;;;1.30;99.90;;;;;;5111049;28;20365;-73
2023/01/20 10:28:35;;;;;;;4.43;2.60;;;1.30;99.90;;;;;;5110863;28;20418;-73
2023/01/20 10:31:04;;;;;;;2.30;2.10;;;1.40;99.90;;;;;;5110846;28;20403;-73
2023/01/20 10:33:35;;;;;;;3.20;2.60;;;1.60;99.90;;;;;;5091393;28;20506;-73
2023/01/20 10:36:01;;;;;;;2.90;2.20;;;1.70;99.90;;;;;;5113202;28;20383;-72
2023/01/20 10:38:41;;;;;;;4.05;2.13;;;1.70;99.90;;;;;;5096872;28;20749;-73
2023/01/20 10:41:25;;;;;;;2.92;2.35;;;1.70;99.90;;;;;;5114604;28;20460;-73
2023/01/20 10:43:51;;;;;;;3.05;2.30;;;1.70;99.90;;;;;;5114176;28;20380;-73
2023/01/20 10:46:44;;;;;;;3.40;2.43;;;1.60;99.90;;;;;;5114924;28;20425;-73
2023/01/20 10:49:40;;;;;;;3.70;2.53;;;2.10;99.90;;;;;;5114867;28;20406;-73
2023/01/20 10:52:35;;;;;;;3.58;2.40;;;2.00;99.90;;;;;;5114525;28;20474;-73
2023/01/20 10:55:26;;;;;;;2.08;1.88;;;2.20;99.90;;;;;;5096204;28;20813;-73
2023/01/20 10:58:00;;;;;;;4.28;2.55;;;2.10;99.90;;;;;;5114619;28;20416;-73
2023/01/20 11:00:29;;;;;;;3.97;3.20;;;1.70;96.50;;;;;;5114980;28;20368;-73
2023/01/20 11:02:58;;;;;;;6.15;5.20;;;1.80;99.90;;;;;;5113841;28;20847;-73
2023/01/20 11:05:30;;;;;;;5.40;4.20;;;2.10;99.90;;;;;;5114748;28;20387;-73
2023/01/20 11:07:58;;;;;;;5.10;4.60;;;2.40;99.90;;;;;;5111639;28;20399;-73
2023/01/20 11:10:28;;;;;;;9.30;6.20;;;2.80;98.90;;;;;;5114176;28;20424;-73
2023/01/20 11:12:58;;;;;;;9.53;8.53;;;2.50;99.30;;;;;;5113199;28;20479;-73
2023/01/20 11:15:28;;;;;;;12.60;11.30;;;2.80;99.90;;;;;;5114609;28;20391;-73
2023/01/20 11:18:12;;;;;;;13.13;11.75;;;2.90;99.90;;;;;;5115625;28;20427;-73
2023/01/20 11:20:41;;;;;;;13.45;12.07;;;3.40;99.90;;;;;;5114401;28;20368;-73
2023/01/20 11:23:21;;;;;;;13.13;11.20;;;3.60;99.90;;;;;;5113341;28;20447;-73
2023/01/20 11:25:57;;;;;;;13.52;11.32;;;3.10;99.90;;;;;;5114398;28;20368;-73
2023/01/20 11:28:24;;;;;;;14.00;11.50;;;3.30;99.90;;;;;;5114111;28;20461;-74
2023/01/20 11:30:53;;;;;;;11.88;10.48;;;3.70;99.90;;;;;;5095872;28;20381;-74
2023/01/20 11:33:21;;;;;;;12.80;10.13;;;4.00;99.90;;;;;;5112715;28;20568;-73
2023/01/20 11:36:25;;;;;;;12.77;10.48;;;3.90;99.00;;;;;;5113979;28;20518;-73
2023/01/20 11:38:53;;;;;;;11.70;10.25;;;4.90;98.30;;;;;;5114029;28;20429;-74
2023/01/20 11:41:27;;;;;;;11.90;10.70;;;4.80;95.00;;;;;;5113712;28;20442;-74
2023/01/20 11:43:58;;;;;;;12.13;10.80;;;5.00;93.60;;;;;;5112667;28;20453;-74
2023/01/20 11:46:32;;;;;;;11.80;10.60;;;4.80;98.20;;;;;;5113544;28;20384;-74
2023/01/20 11:49:07;;;;;;;10.90;9.90;;;5.00;93.20;;;;;;5113626;28;20456;-74
2023/01/20 11:51:42;;;;;;;10.97;9.87;;;5.30;89.10;;;;;;5113535;28;20445;-74
2023/01/20 11:54:14;;;;;;;11.82;9.82;;;5.20;86.60;;;;;;5112266;28;20408;-74
2023/01/20 11:56:42;;;;;;;10.98;9.98;;;5.00;87.40;;;;;;5113631;28;20920;-73
2023/01/20 11:59:22;;;;;;;11.15;10.15;;;5.80;80.70;;;;;;5113419;28;20380;-74
2023/01/20 12:02:19;;;;;;;10.20;8.50;;;5.50;83.60;;;;;;5095169;28;20380;-73
2023/01/20 12:04:59;;;;;;;9.70;8.80;;;6.00;80.20;;;;;;5112129;28;20404;-73
2023/01/20 12:07:33;;;;;;;9.32;7.72;;;6.10;77.10;;;;;;5110161;28;20836;-72
2023/01/20 12:10:04;;;;;;;9.80;8.90;;;6.50;67.50;;;;;;5092904;28;20791;-72
2023/01/20 12:12:43;;;;;;;10.23;9.25;;;6.30;63.40;;;;;;5074636;28;20390;-73
2023/01/20 12:15:19;;;;;;;9.82;8.60;;;6.10;68.00;;;;;;5092709;28;20433;-73
2023/01/20 12:17:53;;;;;;;10.57;9.30;;;6.90;65.70;;;;;;5097936;28;20384;-73
2023/01/20 12:20:40;;;;;;;11.43;10.32;;;5.70;66.30;;;;;;5094680;28;20730;-73
2023/01/20 12:23:30;;;;;;;11.00;9.18;;;6.00;72.30;;;;;;5111964;28;20395;-72
2023/01/20 12:26:00;;;;;;;10.50;9.50;;;6.50;68.20;;;;;;5112668;28;20742;-73
2023/01/20 12:28:36;;;;;;;10.87;9.77;;;5.30;79.50;;;;;;5112988;28;20791;-72
2023/01/20 12:31:04;;;;;;;10.00;9.00;;;5.70;74.40;;;;;;5112657;28;20761;-73
2023/01/20 12:33:39;;;;;;;9.82;8.93;;;5.70;67.60;;;;;;5111730;28;20831;-73
2023/01/20 12:36:35;;;;;;;9.45;8.55;;;6.60;64.40;;;;;;5112411;28;20776;-72
2023/01/20 12:39:34;;;;;;;10.40;9.30;;;6.50;59.50;;;;;;5112527;28;20376;-72
2023/01/20 12:42:08;;;;;;;9.15;7.90;;;7.00;59.90;;;;;;5094320;28;20460;-73
2023/01/20 12:44:51;;;;;;;8.43;7.53;;;6.80;58.90;;;;;;5112132;28;20974;-72
2023/01/20 12:47:55;;;;;;;9.10;8.20;;;6.20;60.60;;;;;;5113602;28;20392;-73
2023/01/20 12:50:30;;;;;;;9.18;8.27;;;5.10;69.60;;;;;;5112980;28;20373;-72
2023/01/20 12:53:24;;;;;;;10.35;9.25;;;4.00;92.20;;;;;;5111571;28;20388;-71
2023/01/20 12:56:23;;;;;;;10.85;9.35;;;3.90;97.60;;;;;;5112485;28;20372;-72
2023/01/20 12:58:56;;;;;;;11.13;9.80;;;3.50;99.90;;;;;;5091106;28;20405;-71
2023/01/20 13:01:37;;;;;;;11.63;10.30;;;3.60;99.90;;;;;;5092019;28;20858;-72
2023/01/20 13:04:45;;;;;;;11.68;10.20;;;3.10;99.90;;;;;;5093685;28;20408;-71
2023/01/20 13:07:46;;;;;;;13.00;10.87;;;3.30;99.90;;;;;;5093230;28;20544;-73
2023/01/20 13:10:34;;;;;;;13.77;10.75;;;3.20;99.90;;;;;;5091765;28;20386;-72
2023/01/20 13:13:10;;;;;;;14.82;11.13;;;3.30;99.90;;;;;;5043821;28;20398;-72
2023/01/20 13:15:56;;;;;;;13.20;10.45;;;3.20;99.90;;;;;;5106621;28;20827;-72
2023/01/20 13:18:30;;;;;;;12.27;10.20;;;3.40;99.90;;;;;;5112048;28;20454;-72
2023/01/20 13:20:56;;;;;;;12.15;10.85;;;3.50;99.90;;;;;;5112018;28;20450;-72
2023/01/20 13:23:25;;;;;;;13.40;11.00;;;3.60;99.90;;;;;;5092596;28;20468;-73
2023/01/20 13:25:52;;;;;;;13.30;10.90;;;3.60;99.90;;;;;;5111687;28;20485;-72